Fields, Oregon
Current Conditions -  °F | °C
As of 3:15 PM on Thursday 27 Nov 2014 (Local Time) from KLKV Reporting Station
Clear Clear  
Wind Chill: 50°   Ceiling: Unl
Heat Index: 50°   Visibility: 10mi
Dew Point: 30°   Wind: 10mph
Humidity: 47%   Direction: 190°S
Pressure: 30.1"   Gusts: NA
Location:  42.26°N, 118.67°W
Report Text: KLKV 272315Z 19009KT 10SM CLR 10/M01 A3010 RMK AO1
Loading
Personal Weather Stations






























Interactive Weather Map New forecast layout! Learn more

10-Day Weather Forecast

Advertisements
Track Severe Weather on mobile